e-Mail: Password: Lost your password? Click here. - Register a new user

c h a v e z j u a r e z . c o m

Weather - Tiempo - Wetter - Temps

METAR DATA MMMX (Mexico City)

Mexico City / Licenci, Mexico (MMMX) 19-26N 099-06W
Mar 24, 2019 - 10:51 PM EDT / 2019.03.25 0251 UTC
Wind: from the NNE (030 degrees) at 16 MPH (14 KT):0
Visibility: 10 mile(s):0
Sky conditions: clear
Temperature: 68 F (20 C)
Dew Point: 32 F (0 C)
Relative Humidity: 26%
Pressure (altimeter): 30.34 in. Hg (1027 hPa)
Pressure tendency: 0.05 inches (1.8 hPa) higher than three hours ago
ob: MMMX 250251Z 03014KT 10SM SKC 20/00 A3034 NOSIG RMK SLP100 52018 951 HZY
cycle: 3

Mexico City

St. Prex




Current weather alarms for Switzerland


www.wetteralarm.ch